Detalii statie TRANSAVIA REDIU [0000197C]

Toti senzorii

Date Temperatura solului [C]Precipitatii [mm]Voltaj baterie [mV]Leaf Wetness [Min]HC Air temperature [C]HC Relative humidity [%]Punctul de roua [C]
medieminmaxsumaultimatimpmedieminmaxmediemediemin
2018-12-09 16:00:00 -0.6 -0.7 -0.6 0 6756 0.99 0.7 1.44 100 0.9 0.7
2018-12-09 17:00:00 -0.6 -0.7 -0.6 0 6688 0.54 0.24 0.76 100 0.5 0.2
2018-12-09 18:00:00 -0.5 -0.6 -0.5 0 6660 0.89 0.75 1.07 100 0.8 0.7
2018-12-09 19:00:00 -0.6 -0.7 -0.6 0 6630 1.2 0.81 1.58 100 1.1 0.8
2018-12-09 20:00:00 -0.6 -0.7 -0.6 0 6610 1.28 0.96 1.48 100 1.2 0.9
2018-12-09 21:00:00 -0.6 -0.7 -0.6 0 6600 0.89 0.75 1.06 100 0.8 0.7
2018-12-09 22:00:00 -0.6 -0.7 -0.4 0 6582 0.78 0.73 0.84 100 0.7 0.7
2018-12-09 23:00:00 -0.5 -0.7 -0.4 0 6582 0.32 0.06 0.59 100 0.2 0
2018-12-10 00:00:00 -0.6 -0.7 -0.4 0 6572 -0.19 -0.48 0.15 100 0 -0.3
2018-12-10 01:00:00 -0.6 -0.7 -0.5 0 6572 -0.11 -0.33 0.1 100 0 -0.2
2018-12-10 02:00:00 -0.5 -0.7 -0.4 0 6562 -0.4 -0.71 -0.05 100 -0.2 -0.6
2018-12-10 03:00:00 -0.6 -0.7 -0.4 0 6562 0.14 -0.12 0.33 100 0.1 0
2018-12-10 04:00:00 -0.5 -0.7 -0.4 0 6562 -0.24 -0.75 0.1 100 -0.1 -0.6
2018-12-10 05:00:00 -0.5 -0.7 -0.5 0 6562 -0.56 -1.07 -0.21 100 -0.4 -0.9
2018-12-10 06:00:00 -0.5 -0.6 -0.5 0 6562 -0.38 -0.65 -0.21 100 -0.2 -0.5
2018-12-10 07:00:00 -0.5 -0.6 -0.4 0 6552 -0.58 -0.83 -0.28 100 -0.4 -0.7
2018-12-10 08:00:00 -0.4 -0.7 -0.4 0 6552 -0.73 -1.04 -0.55 100 -0.5 -0.9
2018-12-10 09:00:00 -0.5 -0.6 -0.4 0 6562 -0.3 -0.65 0.1 100 -0.2 -0.5
2018-12-10 10:00:00 -0.5 -0.5 -0.5 0 6600 0.56 0.24 0.91 100 0.5 0.2
2018-12-10 11:00:00 -0.4 -0.6 -0.4 0 6650 1.47 1.11 1.77 100 1.4 1.1
2018-12-10 12:00:00 -0.5 -0.7 -0.4 0 6698 2.4 1.87 2.71 100 2.3 1.8
2018-12-10 13:00:00 -0.5 -0.7 -0.4 0 6688 3.23 2.66 3.63 100 3.1 2.6
2018-12-10 14:00:00 -0.5 -0.6 -0.4 0 6660 3.64 3.3 4.08 100 3.6 3.3
2018-12-10 15:00:00 -0.4 -0.5 -0.4 0 6630 3.11 2.99 3.32 100 3 2.9
2018-12-10 16:00:00 -0.4 -0.5 -0.3 0.4 6600 2.52 2.28 2.98 100 2.4 2.2
2018-12-10 17:00:00 -0.4 -0.6 -0.3 0 6582 2 1.62 2.22 100 1.9 1.6
2018-12-10 18:00:00 -0.4 -0.6 -0.3 0 6572 1.05 0.69 1.52 100 1 0.6
2018-12-10 19:00:00 -0.4 -0.6 -0.3 0 6562 0.64 0.57 0.71 100 0.5 0.5
2018-12-10 20:00:00 -0.3 -0.4 -0.3 0 6562 0.74 0.68 0.81 100 0.6 0.6
2018-12-10 21:00:00 -0.3 -0.5 -0.3 0 6562 0.89 0.77 0.99 100 0.8 0.7
2018-12-10 22:00:00 -0.3 -0.5 -0.3 0 6552 0.73 0.62 0.78 100 0.6 0.6
2018-12-10 23:00:00 -0.4 -0.5 -0.3 0 6562 0.74 0.67 0.83 100 0.7 0.6
2018-12-11 00:00:00 -0.4 -0.6 -0.4 0 6562 0.58 0.47 0.69 100 0.5 0.4
2018-12-11 01:00:00 -0.3 -0.4 -0.2 0 6552 0.47 0.3 0.62 100 0.4 0.3
2018-12-11 02:00:00 -0.3 -0.5 -0.2 0 6552 0.21 0.17 0.28 100 0.1 0.1
2018-12-11 03:00:00 -0.3 -0.5 -0.2 0 6552 0.23 0.19 0.27 100 0.1 0.1
2018-12-11 04:00:00 -0.3 -0.4 -0.2 0 6552 0.15 0.11 0.19 100 0.1 0.1
2018-12-11 05:00:00 -0.3 -0.4 -0.2 0 6552 0 -0.11 0.13 100 0 0
2018-12-11 06:00:00 -0.3 -0.4 -0.2 0 6542 -0.17 -0.27 -0.06 100 0 -0.1
2018-12-11 07:00:00 -0.3 -0.4 -0.2 0.2 6552 -0.32 -0.44 -0.25 100 -0.1 -0.3
2018-12-11 08:00:00 -0.2 -0.4 -0.2 0 6542 -0.43 -0.55 -0.33 100 -0.2 -0.4
2018-12-11 09:00:00 -0.2 -0.4 -0.2 0 6562 -0.48 -0.62 -0.34 100 -0.3 -0.5